Terminal Aerodrome Forecast
Issued by NWS Brownsville, TX

Current Version | Previous Version | Text Only | Print | Product List | Glossary Off
Versions: 1 2 3 4 5 6 7 8 9 10 11 12 13 14 15 16

339
FTUS44 KBRO 292339
TAFMFE
TAF
KMFE 292339Z 3000/3024 10013G19KT P6SM SCT200
     FM300200 13012KT P6SM VCTS SCT025CB
     FM300600 VRB04KT P6SM SCT015
     FM301500 14008KT P6SM SCT030
     FM301900 12012G19KT P6SM SCT045=

USA.gov is the U.S. government's official web portal to all federal, state and local government web resources and services.